sensor_id;sensor_type;location;lat;lon;timestamp;pressure;altitude;pressure_sealevel;temperature;humidity
59240;BME280;45010;53.640;10.578;2023-11-22T00:02:27;102129.13;;;26.25;34.38
59240;BME280;45010;53.640;10.578;2023-11-22T00:05:29;102121.72;;;26.20;34.22
59240;BME280;45010;53.640;10.578;2023-11-22T00:08:29;102123.16;;;26.16;34.45
59240;BME280;45010;53.640;10.578;2023-11-22T00:11:29;102114.53;;;26.14;34.10
59240;BME280;45010;53.640;10.578;2023-11-22T00:14:30;102116.75;;;26.10;34.28
59240;BME280;45010;53.640;10.578;2023-11-22T00:17:30;102118.84;;;26.08;34.41
59240;BME280;45010;53.640;10.578;2023-11-22T00:20:30;102123.97;;;26.03;34.50
59240;BME280;45010;53.640;10.578;2023-11-22T00:23:31;102131.78;;;25.98;34.30
59240;BME280;45010;53.640;10.578;2023-11-22T00:26:32;102136.53;;;25.96;34.64
59240;BME280;45010;53.640;10.578;2023-11-22T00:29:33;102141.25;;;25.94;34.53
59240;BME280;45010;53.640;10.578;2023-11-22T00:32:33;102130.38;;;25.88;34.65
59240;BME280;45010;53.640;10.578;2023-11-22T00:35:34;102127.06;;;25.86;34.55
59240;BME280;45010;53.640;10.578;2023-11-22T00:38:34;102127.47;;;25.83;34.78
59240;BME280;45010;53.640;10.578;2023-11-22T00:41:36;102126.22;;;25.79;34.66
59240;BME280;45010;53.640;10.578;2023-11-22T00:44:36;102130.38;;;25.75;34.71
59240;BME280;45010;53.640;10.578;2023-11-22T00:47:37;102128.09;;;25.72;34.55
59240;BME280;45010;53.640;10.578;2023-11-22T00:50:39;102137.53;;;25.68;34.61
59240;BME280;45010;53.640;10.578;2023-11-22T00:53:39;102142.47;;;25.64;34.93
59240;BME280;45010;53.640;10.578;2023-11-22T00:56:40;102160.75;;;25.60;34.98
59240;BME280;45010;53.640;10.578;2023-11-22T00:59:40;102161.78;;;25.59;35.24
59240;BME280;45010;53.640;10.578;2023-11-22T01:02:40;102172.63;;;25.51;34.96
59240;BME280;45010;53.640;10.578;2023-11-22T01:05:41;102168.94;;;25.52;34.88
59240;BME280;45010;53.640;10.578;2023-11-22T01:08:42;102174.66;;;25.49;35.34
59240;BME280;45010;53.640;10.578;2023-11-22T01:11:43;102191.09;;;25.46;35.09
59240;BME280;45010;53.640;10.578;2023-11-22T01:14:44;102193.97;;;25.44;35.01
59240;BME280;45010;53.640;10.578;2023-11-22T01:17:44;102168.03;;;25.31;35.18
59240;BME280;45010;53.640;10.578;2023-11-22T01:20:45;102171.34;;;25.33;35.27
59240;BME280;45010;53.640;10.578;2023-11-22T01:23:46;102174.63;;;25.35;35.28
59240;BME280;45010;53.640;10.578;2023-11-22T01:26:46;102176.69;;;25.33;35.13
59240;BME280;45010;53.640;10.578;2023-11-22T01:29:47;102177.06;;;25.30;34.86
59240;BME280;45010;53.640;10.578;2023-11-22T01:32:47;102163.13;;;25.28;34.99
59240;BME280;45010;53.640;10.578;2023-11-22T01:35:49;102171.31;;;25.27;35.02
59240;BME280;45010;53.640;10.578;2023-11-22T01:38:52;102174.19;;;25.25;34.98
59240;BME280;45010;53.640;10.578;2023-11-22T01:41:53;102166.34;;;25.17;35.04
59240;BME280;45010;53.640;10.578;2023-11-22T01:44:54;102171.28;;;25.20;35.29
59240;BME280;45010;53.640;10.578;2023-11-22T01:47:55;102150.28;;;25.03;35.54
59240;BME280;45010;53.640;10.578;2023-11-22T01:50:55;102177.03;;;25.17;35.11
59240;BME280;45010;53.640;10.578;2023-11-22T01:53:56;102180.50;;;25.10;35.30
59240;BME280;45010;53.640;10.578;2023-11-22T01:56:58;102181.94;;;25.13;35.38
59240;BME280;45010;53.640;10.578;2023-11-22T01:59:59;102176.19;;;25.09;35.24
59240;BME280;45010;53.640;10.578;2023-11-22T02:02:59;102186.88;;;25.09;35.12
59240;BME280;45010;53.640;10.578;2023-11-22T02:06:00;102192.41;;;25.08;35.21
59240;BME280;45010;53.640;10.578;2023-11-22T02:09:00;102200.78;;;25.05;35.19
59240;BME280;45010;53.640;10.578;2023-11-22T02:12:01;102203.69;;;25.03;35.31
59240;BME280;45010;53.640;10.578;2023-11-22T02:15:03;102189.69;;;25.01;35.20
59240;BME280;45010;53.640;10.578;2023-11-22T02:18:03;102194.41;;;24.99;35.37
59240;BME280;45010;53.640;10.578;2023-11-22T02:21:06;102195.44;;;24.98;35.51
59240;BME280;45010;53.640;10.578;2023-11-22T02:24:06;102194.59;;;24.97;35.47
59240;BME280;45010;53.640;10.578;2023-11-22T02:27:07;102206.50;;;24.95;35.48
59240;BME280;45010;53.640;10.578;2023-11-22T02:30:08;102204.84;;;24.94;35.42
59240;BME280;45010;53.640;10.578;2023-11-22T02:33:09;102209.13;;;24.88;35.35
59240;BME280;45010;53.640;10.578;2023-11-22T02:36:09;102214.06;;;24.84;35.18
59240;BME280;45010;53.640;10.578;2023-11-22T02:39:12;102217.56;;;24.92;35.22
59240;BME280;45010;53.640;10.578;2023-11-22T02:42:14;102226.59;;;24.91;35.29
59240;BME280;45010;53.640;10.578;2023-11-22T02:45:20;102228.63;;;24.89;35.63
59240;BME280;45010;53.640;10.578;2023-11-22T02:48:23;102237.41;;;24.82;36.02
59240;BME280;45010;53.640;10.578;2023-11-22T02:51:23;102247.81;;;24.77;36.15
59240;BME280;45010;53.640;10.578;2023-11-22T02:54:24;102252.53;;;24.75;36.52
59240;BME280;45010;53.640;10.578;2023-11-22T02:57:24;102258.50;;;24.77;36.48
59240;BME280;45010;53.640;10.578;2023-11-22T03:00:25;102263.44;;;24.80;36.33
59240;BME280;45010;53.640;10.578;2023-11-22T03:03:25;102192.41;;;24.44;36.40
59240;BME280;45010;53.640;10.578;2023-11-22T03:06:25;102257.38;;;24.87;36.27
59240;BME280;45010;53.640;10.578;2023-11-22T03:09:28;102270.94;;;24.92;36.09
59240;BME280;45010;53.640;10.578;2023-11-22T03:12:28;102260.72;;;24.95;35.78
59240;BME280;45010;53.640;10.578;2023-11-22T03:15:28;102257.06;;;25.03;36.03
59240;BME280;45010;53.640;10.578;2023-11-22T03:18:29;102270.66;;;25.08;35.81
59240;BME280;45010;53.640;10.578;2023-11-22T03:21:29;102271.47;;;25.09;35.32
59240;BME280;45010;53.640;10.578;2023-11-22T03:24:29;102266.13;;;25.09;35.06
59240;BME280;45010;53.640;10.578;2023-11-22T03:27:30;102259.97;;;25.08;35.20
59240;BME280;45010;53.640;10.578;2023-11-22T03:30:31;102254.63;;;25.08;35.20
59240;BME280;45010;53.640;10.578;2023-11-22T03:33:31;102254.63;;;25.08;34.99
59240;BME280;45010;53.640;10.578;2023-11-22T03:36:31;102257.50;;;25.07;35.02
59240;BME280;45010;53.640;10.578;2023-11-22T03:39:32;102270.00;;;25.06;35.05
59240;BME280;45010;53.640;10.578;2023-11-22T03:42:32;102267.34;;;25.06;35.00
59240;BME280;45010;53.640;10.578;2023-11-22T03:45:32;102292.38;;;25.05;34.92
59240;BME280;45010;53.640;10.578;2023-11-22T03:48:33;102271.75;;;24.92;34.97
59240;BME280;45010;53.640;10.578;2023-11-22T03:51:34;102282.50;;;24.99;35.01
59240;BME280;45010;53.640;10.578;2023-11-22T03:54:35;102283.69;;;24.96;35.02
59240;BME280;45010;53.640;10.578;2023-11-22T03:57:36;102292.78;;;25.02;35.01
59240;BME280;45010;53.640;10.578;2023-11-22T04:00:36;102291.34;;;25.00;34.91
59240;BME280;45010;53.640;10.578;2023-11-22T04:03:36;102287.00;;;24.98;35.09
59240;BME280;45010;53.640;10.578;2023-11-22T04:06:37;102281.22;;;24.95;34.99
59240;BME280;45010;53.640;10.578;2023-11-22T04:09:37;102289.88;;;24.97;35.02
59240;BME280;45010;53.640;10.578;2023-11-22T04:12:38;102294.31;;;24.90;34.85
59240;BME280;45010;53.640;10.578;2023-11-22T04:15:38;102306.03;;;24.89;34.81
59240;BME280;45010;53.640;10.578;2023-11-22T04:18:40;102302.97;;;24.92;34.92
59240;BME280;45010;53.640;10.578;2023-11-22T04:21:40;102302.97;;;24.92;34.60
59240;BME280;45010;53.640;10.578;2023-11-22T04:24:41;102284.44;;;24.83;34.87
59240;BME280;45010;53.640;10.578;2023-11-22T04:27:41;102279.31;;;24.82;34.96
59240;BME280;45010;53.640;10.578;2023-11-22T04:30:42;102291.44;;;24.84;35.08
59240;BME280;45010;53.640;10.578;2023-11-22T04:33:42;102280.75;;;24.84;34.97
59240;BME280;45010;53.640;10.578;2023-11-22T04:36:42;102285.25;;;24.84;34.97
59240;BME280;45010;53.640;10.578;2023-11-22T04:39:43;102223.78;;;24.42;34.86
59240;BME280;45010;53.640;10.578;2023-11-22T04:42:43;102234.66;;;24.47;34.71
59240;BME280;45010;53.640;10.578;2023-11-22T04:45:44;102287.47;;;24.80;34.83
59240;BME280;45010;53.640;10.578;2023-11-22T04:48:45;102288.50;;;24.79;34.96
59240;BME280;45010;53.640;10.578;2023-11-22T04:51:45;102288.50;;;24.79;35.03
59240;BME280;45010;53.640;10.578;2023-11-22T04:54:45;102286.38;;;24.75;35.06
59240;BME280;45010;53.640;10.578;2023-11-22T04:57:46;102259.28;;;24.71;35.11
59240;BME280;45010;53.640;10.578;2023-11-22T05:00:47;102287.84;;;24.77;34.95
59240;BME280;45010;53.640;10.578;2023-11-22T05:03:47;102284.19;;;24.78;34.93
59240;BME280;45010;53.640;10.578;2023-11-22T05:06:48;102269.56;;;24.74;34.66
59240;BME280;45010;53.640;10.578;2023-11-22T05:09:48;102278.84;;;24.78;34.65
59240;BME280;45010;53.640;10.578;2023-11-22T05:12:48;102280.66;;;24.78;34.93
59240;BME280;45010;53.640;10.578;2023-11-22T05:15:49;102278.59;;;24.73;34.97
59240;BME280;45010;53.640;10.578;2023-11-22T05:18:50;102289.69;;;24.77;35.13
59240;BME280;45010;53.640;10.578;2023-11-22T05:21:50;102299.94;;;24.73;35.07
59240;BME280;45010;53.640;10.578;2023-11-22T05:24:51;102289.59;;;24.63;35.39
59240;BME280;45010;53.640;10.578;2023-11-22T05:27:51;102302.50;;;24.60;35.92
59240;BME280;45010;53.640;10.578;2023-11-22T05:30:52;102306.81;;;24.61;36.03
59240;BME280;45010;53.640;10.578;2023-11-22T05:33:52;102320.16;;;24.61;36.09
59240;BME280;45010;53.640;10.578;2023-11-22T05:36:52;102331.44;;;24.63;35.96
59240;BME280;45010;53.640;10.578;2023-11-22T05:39:53;102331.25;;;24.64;35.99
59240;BME280;45010;53.640;10.578;2023-11-22T05:42:53;102328.41;;;24.66;35.89
59240;BME280;45010;53.640;10.578;2023-11-22T05:45:53;102341.16;;;24.70;36.00
59240;BME280;45010;53.640;10.578;2023-11-22T05:48:54;102339.31;;;24.71;36.14
59240;BME280;45010;53.640;10.578;2023-11-22T05:51:55;102338.53;;;24.77;35.88
59240;BME280;45010;53.640;10.578;2023-11-22T05:54:55;102339.75;;;24.75;36.00
59240;BME280;45010;53.640;10.578;2023-11-22T05:57:56;102347.47;;;24.84;36.18
59240;BME280;45010;53.640;10.578;2023-11-22T06:00:56;102346.06;;;24.89;35.98
59240;BME280;45010;53.640;10.578;2023-11-22T06:03:57;102342.16;;;24.91;35.71
59240;BME280;45010;53.640;10.578;2023-11-22T06:06:57;102350.59;;;24.95;35.64
59240;BME280;45010;53.640;10.578;2023-11-22T06:09:57;102354.56;;;24.99;35.23
59240;BME280;45010;53.640;10.578;2023-11-22T06:12:58;102346.97;;;25.03;35.58
59240;BME280;45010;53.640;10.578;2023-11-22T06:15:58;102340.44;;;25.05;35.06
59240;BME280;45010;53.640;10.578;2023-11-22T06:18:59;102334.72;;;25.08;34.94
59240;BME280;45010;53.640;10.578;2023-11-22T06:21:59;102328.34;;;25.09;34.92
59240;BME280;45010;53.640;10.578;2023-11-22T06:25:01;102323.63;;;25.11;34.68
59240;BME280;45010;53.640;10.578;2023-11-22T06:28:02;102326.91;;;25.14;34.67
59240;BME280;45010;53.640;10.578;2023-11-22T06:31:02;102331.88;;;25.17;34.82
59240;BME280;45010;53.640;10.578;2023-11-22T06:34:03;102329.84;;;25.19;34.62
59240;BME280;45010;53.640;10.578;2023-11-22T06:37:03;102317.13;;;25.21;34.73
59240;BME280;45010;53.640;10.578;2023-11-22T06:40:04;102307.69;;;25.25;34.65
59240;BME280;45010;53.640;10.578;2023-11-22T06:43:05;102296.63;;;25.28;34.58
59240;BME280;45010;53.640;10.578;2023-11-22T06:46:05;102296.22;;;25.31;34.46
59240;BME280;45010;53.640;10.578;2023-11-22T06:49:06;102288.84;;;25.33;34.56
59240;BME280;45010;53.640;10.578;2023-11-22T06:52:06;102306.94;;;25.38;34.63
59240;BME280;45010;53.640;10.578;2023-11-22T06:55:09;102311.06;;;25.41;34.48
59240;BME280;45010;53.640;10.578;2023-11-22T06:58:10;102311.69;;;25.43;34.24
59240;BME280;45010;53.640;10.578;2023-11-22T07:01:11;102321.34;;;25.44;34.33
59240;BME280;45010;53.640;10.578;2023-11-22T07:04:11;102324.66;;;25.46;34.21
59240;BME280;45010;53.640;10.578;2023-11-22T07:07:11;102317.25;;;25.48;34.25
59240;BME280;45010;53.640;10.578;2023-11-22T07:10:12;102299.19;;;25.50;34.18
59240;BME280;45010;53.640;10.578;2023-11-22T07:13:14;102305.16;;;25.52;34.26
59240;BME280;45010;53.640;10.578;2023-11-22T07:16:14;102287.13;;;25.54;33.74
59240;BME280;45010;53.640;10.578;2023-11-22T07:19:15;102313.63;;;25.56;33.77
59240;BME280;45010;53.640;10.578;2023-11-22T07:22:15;102309.09;;;25.56;33.91
59240;BME280;45010;53.640;10.578;2023-11-22T07:25:16;102332.75;;;25.59;33.58
59240;BME280;45010;53.640;10.578;2023-11-22T07:28:19;102306.19;;;25.51;33.57
59240;BME280;45010;53.640;10.578;2023-11-22T07:31:19;102335.84;;;25.63;33.40
59240;BME280;45010;53.640;10.578;2023-11-22T07:34:20;102323.13;;;25.65;33.52
59240;BME280;45010;53.640;10.578;2023-11-22T07:37:20;102320.25;;;25.67;33.30
59240;BME280;45010;53.640;10.578;2023-11-22T07:40:21;102330.94;;;25.67;33.41
59240;BME280;45010;53.640;10.578;2023-11-22T07:43:22;102312.84;;;25.62;33.35
59240;BME280;45010;53.640;10.578;2023-11-22T07:46:23;102330.75;;;25.68;33.39
59240;BME280;45010;53.640;10.578;2023-11-22T07:49:23;102351.94;;;25.70;33.15
59240;BME280;45010;53.640;10.578;2023-11-22T07:52:24;102355.22;;;25.72;33.34
59240;BME280;45010;53.640;10.578;2023-11-22T07:55:29;102356.84;;;25.73;33.71
59240;BME280;45010;53.640;10.578;2023-11-22T07:58:30;102370.88;;;25.75;33.61
59240;BME280;45010;53.640;10.578;2023-11-22T08:01:34;102365.53;;;25.75;33.83
59240;BME280;45010;53.640;10.578;2023-11-22T08:04:34;102385.06;;;25.82;33.69
59240;BME280;45010;53.640;10.578;2023-11-22T08:07:35;102379.31;;;25.85;33.92
59240;BME280;45010;53.640;10.578;2023-11-22T08:10:38;102376.25;;;25.88;33.68
59240;BME280;45010;53.640;10.578;2023-11-22T08:13:39;102374.19;;;25.90;33.92
59240;BME280;45010;53.640;10.578;2023-11-22T08:16:39;102373.19;;;25.91;33.65
59240;BME280;45010;53.640;10.578;2023-11-22T08:19:42;102359.41;;;25.95;33.85
59240;BME280;45010;53.640;10.578;2023-11-22T08:22:44;102351.78;;;25.91;33.63
59240;BME280;45010;53.640;10.578;2023-11-22T08:25:45;102348.31;;;25.98;33.82
59240;BME280;45010;53.640;10.578;2023-11-22T08:28:46;102338.03;;;26.01;33.56
59240;BME280;45010;53.640;10.578;2023-11-22T08:31:46;102336.00;;;26.03;33.17
59240;BME280;45010;53.640;10.578;2023-11-22T08:34:48;102338.50;;;26.05;33.46
59240;BME280;45010;53.640;10.578;2023-11-22T08:37:48;102352.47;;;26.07;33.25
59240;BME280;45010;53.640;10.578;2023-11-22T08:40:50;102360.06;;;26.10;33.38
59240;BME280;45010;53.640;10.578;2023-11-22T08:43:51;102359.06;;;26.11;32.62
59240;BME280;45010;53.640;10.578;2023-11-22T08:46:51;102343.03;;;26.11;32.92
59240;BME280;45010;53.640;10.578;2023-11-22T08:49:51;102332.94;;;26.13;33.02
59240;BME280;45010;53.640;10.578;2023-11-22T08:52:52;102346.94;;;26.15;33.35
59240;BME280;45010;53.640;10.578;2023-11-22T08:55:56;102345.69;;;26.18;33.58
59240;BME280;45010;53.640;10.578;2023-11-22T08:58:57;102349.22;;;26.18;33.31
59240;BME280;45010;53.640;10.578;2023-11-22T09:01:57;102361.56;;;26.19;33.37
59240;BME280;45010;53.640;10.578;2023-11-22T09:04:57;102372.06;;;26.21;33.17
59240;BME280;45010;53.640;10.578;2023-11-22T09:07:58;102366.50;;;26.23;33.22
59240;BME280;45010;53.640;10.578;2023-11-22T09:10:59;102349.47;;;26.24;33.21
59240;BME280;45010;53.640;10.578;2023-11-22T09:13:59;102347.59;;;26.24;33.31
59240;BME280;45010;53.640;10.578;2023-11-22T09:17:01;102343.69;;;26.27;33.44
59240;BME280;45010;53.640;10.578;2023-11-22T09:20:06;102348.00;;;26.28;33.43
59240;BME280;45010;53.640;10.578;2023-11-22T09:23:07;102349.69;;;26.29;33.16
59240;BME280;45010;53.640;10.578;2023-11-22T09:26:08;102335.28;;;26.30;33.00
59240;BME280;45010;53.640;10.578;2023-11-22T09:29:10;102336.09;;;26.30;33.13
59240;BME280;45010;53.640;10.578;2023-11-22T09:32:13;102347.63;;;26.31;32.99
59240;BME280;45010;53.640;10.578;2023-11-22T09:35:14;102356.47;;;26.25;33.13
59240;BME280;45010;53.640;10.578;2023-11-22T09:38:15;102356.25;;;26.33;32.78
59240;BME280;45010;53.640;10.578;2023-11-22T09:41:15;102364.91;;;26.35;33.03
59240;BME280;45010;53.640;10.578;2023-11-22T09:44:17;102380.97;;;26.35;32.90
59240;BME280;45010;53.640;10.578;2023-11-22T09:47:18;102390.63;;;26.36;32.87
59240;BME280;45010;53.640;10.578;2023-11-22T09:50:23;102377.25;;;26.36;32.55
59240;BME280;45010;53.640;10.578;2023-11-22T09:53:32;102389.59;;;26.37;32.61
59240;BME280;45010;53.640;10.578;2023-11-22T09:56:36;102396.59;;;26.38;32.73
59240;BME280;45010;53.640;10.578;2023-11-22T09:59:39;102391.44;;;26.37;32.77
59240;BME280;45010;53.640;10.578;2023-11-22T10:02:40;102387.97;;;26.36;32.62
59240;BME280;45010;53.640;10.578;2023-11-22T10:05:44;102376.00;;;26.32;32.72
59240;BME280;45010;53.640;10.578;2023-11-22T10:08:44;102373.13;;;26.34;32.23
59240;BME280;45010;53.640;10.578;2023-11-22T10:11:47;102387.53;;;26.39;32.64
59240;BME280;45010;53.640;10.578;2023-11-22T10:14:50;102392.88;;;26.39;32.04
59240;BME280;45010;53.640;10.578;2023-11-22T10:17:55;102366.13;;;26.39;32.21
59240;BME280;45010;53.640;10.578;2023-11-22T10:21:00;102359.75;;;26.40;32.20
59240;BME280;45010;53.640;10.578;2023-11-22T10:24:03;102343.31;;;26.30;32.44
59240;BME280;45010;53.640;10.578;2023-11-22T10:27:05;102344.75;;;26.39;32.14
59240;BME280;45010;53.640;10.578;2023-11-22T10:30:07;102340.41;;;26.38;32.51
59240;BME280;45010;53.640;10.578;2023-11-22T10:33:10;102331.97;;;26.28;32.21
59240;BME280;45010;53.640;10.578;2023-11-22T10:36:14;102319.66;;;26.34;32.35
59240;BME280;45010;53.640;10.578;2023-11-22T10:39:19;102304.41;;;26.34;32.37
59240;BME280;45010;53.640;10.578;2023-11-22T10:42:21;102323.34;;;26.39;32.05
59240;BME280;45010;53.640;10.578;2023-11-22T10:45:22;102308.94;;;26.40;32.14
59240;BME280;45010;53.640;10.578;2023-11-22T10:48:23;102298.22;;;26.40;31.94
59240;BME280;45010;53.640;10.578;2023-11-22T10:51:30;102280.31;;;26.34;32.01
59240;BME280;45010;53.640;10.578;2023-11-22T10:54:32;102293.72;;;26.41;32.19
59240;BME280;45010;53.640;10.578;2023-11-22T10:58:03;102281.56;;;26.38;31.68
59240;BME280;45010;53.640;10.578;2023-11-22T11:01:05;102265.75;;;26.30;32.11
59240;BME280;45010;53.640;10.578;2023-11-22T11:04:13;102271.47;;;26.40;31.93
59240;BME280;45010;53.640;10.578;2023-11-22T11:07:21;102273.16;;;26.41;31.97
59240;BME280;45010;53.640;10.578;2023-11-22T11:10:22;102258.94;;;26.41;31.97
59240;BME280;45010;53.640;10.578;2023-11-22T11:13:23;102222.13;;;26.29;31.79
59240;BME280;45010;53.640;10.578;2023-11-22T11:16:24;102230.34;;;26.41;31.46
59240;BME280;45010;53.640;10.578;2023-11-22T11:19:25;102233.03;;;26.41;31.67
59240;BME280;45010;53.640;10.578;2023-11-22T11:22:25;102232.00;;;26.42;31.24
59240;BME280;45010;53.640;10.578;2023-11-22T11:25:25;102220.44;;;26.42;30.89
59240;BME280;45010;53.640;10.578;2023-11-22T11:28:26;102195.56;;;26.41;31.07
59240;BME280;45010;53.640;10.578;2023-11-22T11:31:31;102184.25;;;26.46;31.30
59240;BME280;45010;53.640;10.578;2023-11-22T11:34:31;102176.03;;;26.48;31.80
59240;BME280;45010;53.640;10.578;2023-11-22T11:37:32;102164.88;;;26.51;31.13
59240;BME280;45010;53.640;10.578;2023-11-22T11:40:34;102130.75;;;26.39;31.41
59240;BME280;45010;53.640;10.578;2023-11-22T11:46:41;102138.56;;;26.48;31.18
59240;BME280;45010;53.640;10.578;2023-11-22T11:49:41;102146.75;;;26.53;31.14
59240;BME280;45010;53.640;10.578;2023-11-22T11:52:42;102128.03;;;26.53;31.35
59240;BME280;45010;53.640;10.578;2023-11-22T11:55:42;102127.03;;;26.54;31.28
59240;BME280;45010;53.640;10.578;2023-11-22T11:58:46;102116.31;;;26.54;30.87
59240;BME280;45010;53.640;10.578;2023-11-22T12:01:52;102106.63;;;26.53;31.08
59240;BME280;45010;53.640;10.578;2023-11-22T12:04:53;102082.16;;;26.49;30.80
59240;BME280;45010;53.640;10.578;2023-11-22T12:07:53;102091.63;;;26.52;30.95
59240;BME280;45010;53.640;10.578;2023-11-22T12:10:56;102115.50;;;26.46;30.97
59240;BME280;45010;53.640;10.578;2023-11-22T12:13:58;102161.81;;;26.54;30.98
59240;BME280;45010;53.640;10.578;2023-11-22T12:16:59;102152.53;;;26.43;30.64
59240;BME280;45010;53.640;10.578;2023-11-22T12:20:13;102127.88;;;26.48;30.90
59240;BME280;45010;53.640;10.578;2023-11-22T12:23:15;102138.13;;;26.51;31.06
59240;BME280;45010;53.640;10.578;2023-11-22T12:26:19;102136.91;;;26.46;30.59
59240;BME280;45010;53.640;10.578;2023-11-22T12:29:19;102124.94;;;26.49;30.97
59240;BME280;45010;53.640;10.578;2023-11-22T12:32:24;102111.81;;;26.48;30.71
59240;BME280;45010;53.640;10.578;2023-11-22T12:35:25;102099.44;;;26.46;30.78
59240;BME280;45010;53.640;10.578;2023-11-22T12:38:27;102104.78;;;26.46;30.74
59240;BME280;45010;53.640;10.578;2023-11-22T12:41:27;102093.50;;;26.44;30.59
59240;BME280;45010;53.640;10.578;2023-11-22T12:44:29;102079.91;;;26.39;30.94
59240;BME280;45010;53.640;10.578;2023-11-22T12:47:33;102092.88;;;26.42;30.64
59240;BME280;45010;53.640;10.578;2023-11-22T12:50:38;102071.69;;;26.41;30.80
59240;BME280;45010;53.640;10.578;2023-11-22T12:53:41;102062.84;;;26.40;30.45
59240;BME280;45010;53.640;10.578;2023-11-22T12:56:43;102059.56;;;26.38;30.67
59240;BME280;45010;53.640;10.578;2023-11-22T12:59:43;102055.03;;;26.39;30.52
59240;BME280;45010;53.640;10.578;2023-11-22T13:02:44;102057.72;;;26.39;30.35
59240;BME280;45010;53.640;10.578;2023-11-22T13:05:45;102055.06;;;26.32;30.30
59240;BME280;45010;53.640;10.578;2023-11-22T13:08:45;102066.97;;;26.36;30.56
59240;BME280;45010;53.640;10.578;2023-11-22T13:11:45;102068.03;;;26.35;30.58
59240;BME280;45010;53.640;10.578;2023-11-22T13:14:47;102073.38;;;26.35;30.25
59240;BME280;45010;53.640;10.578;2023-11-22T13:17:47;102083.44;;;26.33;30.25
59240;BME280;45010;53.640;10.578;2023-11-22T13:20:48;102080.16;;;26.31;30.48
59240;BME280;45010;53.640;10.578;2023-11-22T13:23:50;102084.28;;;26.27;30.28
59240;BME280;45010;53.640;10.578;2023-11-22T13:26:50;102087.59;;;26.29;30.15
59240;BME280;45010;53.640;10.578;2023-11-22T13:29:51;102086.34;;;26.25;30.63
59240;BME280;45010;53.640;10.578;2023-11-22T13:32:53;102100.31;;;26.27;30.49
59240;BME280;45010;53.640;10.578;2023-11-22T13:35:56;102101.34;;;26.26;30.53
59240;BME280;45010;53.640;10.578;2023-11-22T13:38:58;102096.84;;;26.26;30.50
59240;BME280;45010;53.640;10.578;2023-11-22T13:41:58;102112.06;;;26.26;30.29
59240;BME280;45010;53.640;10.578;2023-11-22T13:44:59;102130.78;;;26.26;30.63
59240;BME280;45010;53.640;10.578;2023-11-22T13:47:59;102131.19;;;26.23;30.53
59240;BME280;45010;53.640;10.578;2023-11-22T13:51:07;102134.06;;;26.21;30.41
59240;BME280;45010;53.640;10.578;2023-11-22T13:54:10;102134.84;;;26.22;30.51
59240;BME280;45010;53.640;10.578;2023-11-22T13:57:14;102133.22;;;26.21;30.70
59240;BME280;45010;53.640;10.578;2023-11-22T14:00:15;102133.41;;;26.19;30.35
59240;BME280;45010;53.640;10.578;2023-11-22T14:03:22;102107.50;;;26.19;30.34
59240;BME280;45010;53.640;10.578;2023-11-22T14:06:23;102092.50;;;26.18;30.16
59240;BME280;45010;53.640;10.578;2023-11-22T14:09:23;102088.38;;;26.16;30.36
59240;BME280;45010;53.640;10.578;2023-11-22T14:12:24;102079.53;;;26.15;30.55
59240;BME280;45010;53.640;10.578;2023-11-22T14:15:24;102090.47;;;26.14;30.33
59240;BME280;45010;53.640;10.578;2023-11-22T14:18:24;102075.41;;;26.13;30.47
59240;BME280;45010;53.640;10.578;2023-11-22T14:21:25;102071.94;;;26.12;30.28
59240;BME280;45010;53.640;10.578;2023-11-22T14:24:26;102057.53;;;26.06;30.25
59240;BME280;45010;53.640;10.578;2023-11-22T14:27:29;102067.44;;;26.06;30.05
59240;BME280;45010;53.640;10.578;2023-11-22T14:30:30;102069.66;;;26.09;30.52
59240;BME280;45010;53.640;10.578;2023-11-22T14:33:35;102070.72;;;26.08;29.96
59240;BME280;45010;53.640;10.578;2023-11-22T14:36:35;102074.41;;;26.07;30.10
59240;BME280;45010;53.640;10.578;2023-11-22T14:39:37;102071.13;;;26.05;30.07
59240;BME280;45010;53.640;10.578;2023-11-22T14:42:37;102053.44;;;26.04;29.64
59240;BME280;45010;53.640;10.578;2023-11-22T14:45:39;102051.00;;;26.02;29.75
59240;BME280;45010;53.640;10.578;2023-11-22T14:48:40;102043.16;;;26.01;29.66
59240;BME280;45010;53.640;10.578;2023-11-22T14:51:41;102002.69;;;25.90;29.65
59240;BME280;45010;53.640;10.578;2023-11-22T14:54:41;102008.66;;;25.92;29.46
59240;BME280;45010;53.640;10.578;2023-11-22T14:57:41;102032.06;;;25.97;29.53
59240;BME280;45010;53.640;10.578;2023-11-22T15:00:42;102023.22;;;25.97;29.66
59240;BME280;45010;53.640;10.578;2023-11-22T15:03:43;102019.94;;;25.95;29.47
59240;BME280;45010;53.640;10.578;2023-11-22T15:06:44;101981.13;;;25.78;29.43
59240;BME280;45010;53.640;10.578;2023-11-22T15:09:45;101977.41;;;25.79;29.39
59240;BME280;45010;53.640;10.578;2023-11-22T15:12:46;101974.72;;;25.86;29.41
59240;BME280;45010;53.640;10.578;2023-11-22T15:15:48;101974.09;;;25.91;29.03
59240;BME280;45010;53.640;10.578;2023-11-22T15:18:48;101959.31;;;25.88;29.06
59240;BME280;45010;53.640;10.578;2023-11-22T15:21:49;101937.94;;;25.88;29.13
59240;BME280;45010;53.640;10.578;2023-11-22T15:24:49;101929.28;;;25.86;29.36
59240;BME280;45010;53.640;10.578;2023-11-22T15:27:50;101931.34;;;25.84;29.50
59240;BME280;45010;53.640;10.578;2023-11-22T15:30:50;101924.38;;;25.83;30.15
59240;BME280;45010;53.640;10.578;2023-11-22T15:33:58;101910.81;;;25.85;30.19
59240;BME280;45010;53.640;10.578;2023-11-22T15:36:58;101907.91;;;25.86;30.77
59240;BME280;45010;53.640;10.578;2023-11-22T15:39:58;101917.59;;;25.87;30.34